Terminal Aerodrome Forecast
Issued by NWS Corpus Christi, TX

Home | Current Version | Previous Version | Text Only | Print | Product List | Glossary On
Versions: 1 2 3 4 5 6 7 8 9 10 11 12 13 14 15 16
288
FTUS44 KCRP 191743
TAFCRP
TAF
KCRP 191743Z 1918/2018 31005KT P6SM OVC025
      TEMPO 1918/1919 BKN006
     FM192000 21004KT P6SM SCT035
     FM200700 17005KT 3SM BR OVC007
     FM200900 20004KT 1 1/2SM BR OVC004
      TEMPO 2010/2013 1/4SM FG VV001
     FM201500 28004KT 4SM BR OVC009=

USA.gov is the U.S. government's official web portal to all federal, state and local government web resources and services.